Time;durP1;ratioP1;P1;durP2;ratioP2;P2;SDS_P1;SDS_P2;PMS_P1;PMS_P2;Temp;Humidity;BMP_temperature;BMP_pressure;BME280_temperature;BME280_humidity;BME280_pressure;Samples;Min_cycle;Max_cycle;Signal;HPM_P1;HPM_P2
2023/09/04 00:01:04;;;;;;;;;;;17.80;95.00;;;;;;5008619;28;19953;-72
2023/09/04 00:03:30;;;;;;;;;;;17.70;95.20;;;;;;5008931;28;19966;-72
2023/09/04 00:05:55;;;;;;;;;;;17.70;95.20;;;;;;5007267;28;19922;-72
2023/09/04 00:08:21;;;;;;;;;;;17.60;95.20;;;;;;5007841;28;19918;-72
2023/09/04 00:10:46;;;;;;;;;;;17.60;95.10;;;;;;5004489;28;19937;-72
2023/09/04 00:13:12;;;;;;;;;;;17.60;95.20;;;;;;5005418;28;19961;-72
2023/09/04 00:15:38;;;;;;;;;;;17.60;95.30;;;;;;5008342;28;20247;-72
2023/09/04 00:18:04;;;;;;;;;;;17.60;95.20;;;;;;5008304;28;19913;-72
2023/09/04 00:20:29;;;;;;;;;;;17.60;95.20;;;;;;5007981;28;19914;-72
2023/09/04 00:22:55;;;;;;;;;;;17.50;95.20;;;;;;5007801;28;20023;-72
2023/09/04 00:25:21;;;;;;;;;;;17.50;95.20;;;;;;5003013;28;19928;-72
2023/09/04 00:27:47;;;;;;;;;;;17.50;95.20;;;;;;5006729;28;19921;-72
2023/09/04 00:30:13;;;;;;;;;;;17.50;95.20;;;;;;5008239;28;19917;-72
2023/09/04 00:32:38;;;;;;;;;;;17.40;95.40;;;;;;5007517;28;19913;-72
2023/09/04 00:35:04;;;;;;;;;;;17.50;95.30;;;;;;5006905;28;19937;-72
2023/09/04 00:37:30;;;;;;;;;;;17.40;95.50;;;;;;5007853;28;19921;-72
2023/09/04 00:39:55;;;;;;;;;;;17.40;95.70;;;;;;5007608;28;19910;-72
2023/09/04 00:42:21;;;;;;;;;;;17.40;95.80;;;;;;5007741;28;19913;-72
2023/09/04 00:44:52;;;;;;;;;;;17.30;95.80;;;;;;5007565;28;20628;-72
2023/09/04 00:47:19;;;;;;;;;;;17.30;95.80;;;;;;5008045;28;19964;-72
2023/09/04 00:49:45;;;;;;;;;;;17.30;95.70;;;;;;5007585;28;19917;-72
2023/09/04 00:52:11;;;;;;;;;;;17.30;95.50;;;;;;5006114;28;20630;-72
2023/09/04 00:54:37;;;;;;;;;;;17.30;95.40;;;;;;5007170;28;20582;-72
2023/09/04 00:57:04;;;;;;;;;;;17.30;95.40;;;;;;4999823;28;19913;-72
2023/09/04 00:59:29;;;;;;;;;;;17.30;95.80;;;;;;5007444;28;19914;-72
2023/09/04 01:01:56;;;;;;;;;;;17.20;95.80;;;;;;5007127;28;20267;-72
2023/09/04 01:04:22;;;;;;;;;;;17.20;95.80;;;;;;5007891;28;20045;-72
2023/09/04 01:06:47;;;;;;;;;;;17.20;95.90;;;;;;5008411;28;19913;-72
2023/09/04 01:09:13;;;;;;;;;;;17.20;95.90;;;;;;5011324;28;19914;-72
2023/09/04 01:11:40;;;;;;;;;;;17.20;95.80;;;;;;5010969;28;19913;-72
2023/09/04 01:14:10;;;;;;;;;;;17.20;95.80;;;;;;5011272;28;19956;-72
2023/09/04 01:16:37;;;;;;;;;;;17.10;95.90;;;;;;5009753;28;19925;-72
2023/09/04 01:19:03;;;;;;;;;;;17.10;95.80;;;;;;5003617;28;19925;-72
2023/09/04 01:21:29;;;;;;;;;;;17.10;95.90;;;;;;5011533;28;20382;-72
2023/09/04 01:23:54;;;;;;;;;;;17.10;95.90;;;;;;5011024;28;20008;-72
2023/09/04 01:26:38;;;;;;;;;;;17.10;95.90;;;;;;5010847;28;20252;-72
2023/09/04 01:29:16;;;;;;;;;;;17.10;95.90;;;;;;5026067;28;19971;-72
2023/09/04 01:31:54;;;;;;;;;;;17.00;95.80;;;;;;5010620;28;19926;-72
2023/09/04 01:34:24;;;;;;;;;;;17.00;95.90;;;;;;5011769;28;19992;-72
2023/09/04 01:36:51;;;;;;;;;;;17.00;95.90;;;;;;5009794;28;20437;-72
2023/09/04 01:39:17;;;;;;;;;;;17.00;95.90;;;;;;5011457;28;20285;-72
2023/09/04 01:41:42;;;;;;;;;;;17.00;95.90;;;;;;5010098;28;19921;-72
2023/09/04 01:44:08;;;;;;;;;;;16.90;95.90;;;;;;5010976;28;20001;-72
2023/09/04 01:46:34;;;;;;;;;;;17.00;95.90;;;;;;5011399;28;20353;-72
2023/09/04 01:49:00;;;;;;;;;;;16.90;95.80;;;;;;5009492;28;19972;-72
2023/09/04 01:51:25;;;;;;;;;;;16.90;95.80;;;;;;5011073;28;19914;-72
2023/09/04 01:53:51;;;;;;;;;;;16.90;95.90;;;;;;5010509;28;19964;-72
2023/09/04 01:56:16;;;;;;;;;;;16.90;95.90;;;;;;5011153;28;20008;-72
2023/09/04 01:58:42;;;;;;;;;;;16.80;95.90;;;;;;5010320;28;19920;-72
2023/09/04 02:01:07;;;;;;;;;;;16.90;95.90;;;;;;5011002;28;19913;-72
2023/09/04 02:03:33;;;;;;;;;;;16.80;95.90;;;;;;5010971;28;19914;-72
2023/09/04 02:05:58;;;;;;;;;;;16.80;95.90;;;;;;5008910;28;19918;-72
2023/09/04 02:08:24;;;;;;;;;;;16.80;95.90;;;;;;5008835;28;19963;-72
2023/09/04 02:10:50;;;;;;;;;;;16.80;95.90;;;;;;5010233;28;20016;-72
2023/09/04 02:13:15;;;;;;;;;;;16.80;95.90;;;;;;5008196;28;19964;-72
2023/09/04 02:15:41;;;;;;;;;;;16.80;95.90;;;;;;5006809;28;19952;-72
2023/09/04 02:18:06;;;;;;;;;;;16.70;95.80;;;;;;5009290;28;19918;-72
2023/09/04 02:20:32;;;;;;;;;;;16.70;95.80;;;;;;5010266;28;19959;-72
2023/09/04 02:22:57;;;;;;;;;;;16.70;95.80;;;;;;5009862;28;19964;-72
2023/09/04 02:25:24;;;;;;;;;;;16.70;95.80;;;;;;5010755;28;19917;-72
2023/09/04 02:27:49;;;;;;;;;;;16.60;95.80;;;;;;5010203;28;19970;-72
2023/09/04 02:30:15;;;;;;;;;;;16.70;95.90;;;;;;5010279;28;19920;-72
2023/09/04 02:32:40;;;;;;;;;;;16.60;95.80;;;;;;5009697;28;20313;-72
2023/09/04 02:35:06;;;;;;;;;;;16.60;95.90;;;;;;5010468;28;19953;-72
2023/09/04 02:37:32;;;;;;;;;;;16.60;95.90;;;;;;5008931;28;20743;-72
2023/09/04 02:39:57;;;;;;;;;;;16.60;95.90;;;;;;5009930;28;19913;-72
2023/09/04 02:42:23;;;;;;;;;;;16.60;95.80;;;;;;5010008;28;20004;-72
2023/09/04 02:44:48;;;;;;;;;;;16.60;95.80;;;;;;5008399;28;20275;-72
2023/09/04 02:47:14;;;;;;;;;;;16.60;95.80;;;;;;5010009;28;19918;-72
2023/09/04 02:49:39;;;;;;;;;;;16.50;95.80;;;;;;5009840;28;21243;-72
2023/09/04 02:52:05;;;;;;;;;;;16.50;95.80;;;;;;5009618;28;19909;-72
2023/09/04 02:54:30;;;;;;;;;;;16.50;95.80;;;;;;5008579;28;19910;-72
2023/09/04 02:56:56;;;;;;;;;;;16.40;95.80;;;;;;5009483;28;19913;-72
2023/09/04 02:59:22;;;;;;;;;;;16.50;95.80;;;;;;5008627;28;19928;-72
2023/09/04 03:01:50;;;;;;;;;;;16.50;95.90;;;;;;5007941;28;19949;-72
2023/09/04 03:04:16;;;;;;;;;;;16.40;95.80;;;;;;5009621;28;19918;-72
2023/09/04 03:06:42;;;;;;;;;;;16.40;95.80;;;;;;5007588;28;19964;-72
2023/09/04 03:09:07;;;;;;;;;;;16.40;95.80;;;;;;5009478;28;19913;-72
2023/09/04 03:11:33;;;;;;;;;;;16.40;95.80;;;;;;5009602;28;19914;-72
2023/09/04 03:13:58;;;;;;;;;;;16.40;95.80;;;;;;5009123;28;21585;-72
2023/09/04 03:16:24;;;;;;;;;;;16.40;95.80;;;;;;5009837;28;19918;-72
2023/09/04 03:18:49;;;;;;;;;;;16.30;95.80;;;;;;5007981;28;19914;-72
2023/09/04 03:21:15;;;;;;;;;;;16.30;95.80;;;;;;5009144;28;19917;-72
2023/09/04 03:23:40;;;;;;;;;;;16.30;95.80;;;;;;5008914;28;19945;-72
2023/09/04 03:26:06;;;;;;;;;;;16.30;95.80;;;;;;5008093;28;20037;-72
2023/09/04 03:28:33;;;;;;;;;;;16.30;95.80;;;;;;5007782;28;19917;-72
2023/09/04 03:30:58;;;;;;;;;;;16.30;95.80;;;;;;5008251;28;19920;-72
2023/09/04 03:33:24;;;;;;;;;;;16.30;95.80;;;;;;5009317;28;19913;-72
2023/09/04 03:35:49;;;;;;;;;;;16.30;95.80;;;;;;5009197;28;19953;-72
2023/09/04 03:38:16;;;;;;;;;;;16.20;95.80;;;;;;5006951;28;19913;-72
2023/09/04 03:40:41;;;;;;;;;;;16.20;95.80;;;;;;5007363;28;19987;-72
2023/09/04 03:43:07;;;;;;;;;;;16.20;95.80;;;;;;5007626;28;20691;-72
2023/09/04 03:45:33;;;;;;;;;;;16.20;95.80;;;;;;5007567;28;19964;-72
2023/09/04 03:47:58;;;;;;;;;;;16.20;95.80;;;;;;5007109;28;19920;-72
2023/09/04 03:50:24;;;;;;;;;;;16.10;95.80;;;;;;5008797;28;20625;-72
2023/09/04 03:52:50;;;;;;;;;;;16.10;95.80;;;;;;5008634;28;20400;-72
2023/09/04 03:55:15;;;;;;;;;;;16.10;95.80;;;;;;5008645;28;19964;-72
2023/09/04 03:57:47;;;;;;;;;;;16.10;95.80;;;;;;5008288;28;20379;-72
2023/09/04 04:00:19;;;;;;;;;;;16.10;95.80;;;;;;5007214;28;19917;-72
2023/09/04 04:02:45;;;;;;;;;;;16.10;95.80;;;;;;5008203;28;20049;-72
2023/09/04 04:05:11;;;;;;;;;;;16.10;95.80;;;;;;5008536;28;19921;-72
2023/09/04 04:07:37;;;;;;;;;;;16.10;95.80;;;;;;5003578;28;19914;-72
2023/09/04 04:10:04;;;;;;;;;;;16.10;95.80;;;;;;5023002;28;20424;-72
2023/09/04 04:12:31;;;;;;;;;;;16.00;95.80;;;;;;5006459;28;19909;-72
2023/09/04 04:14:57;;;;;;;;;;;16.00;95.80;;;;;;5008349;28;19909;-72
2023/09/04 04:17:23;;;;;;;;;;;16.00;95.80;;;;;;5007521;28;19921;-72
2023/09/04 04:19:50;;;;;;;;;;;16.00;95.80;;;;;;5008033;28;19918;-72
2023/09/04 04:22:16;;;;;;;;;;;16.00;95.80;;;;;;5008084;28;20020;-72
2023/09/04 04:24:41;;;;;;;;;;;16.00;95.80;;;;;;5007956;28;20052;-72
2023/09/04 04:27:08;;;;;;;;;;;15.90;95.80;;;;;;5007956;28;19917;-72
2023/09/04 04:29:34;;;;;;;;;;;15.90;95.80;;;;;;5008476;28;20392;-72
2023/09/04 04:31:59;;;;;;;;;;;15.90;95.80;;;;;;5007668;28;19913;-72
2023/09/04 04:34:25;;;;;;;;;;;15.90;95.80;;;;;;5008383;28;19909;-72
2023/09/04 04:36:55;;;;;;;;;;;15.90;95.80;;;;;;5008104;28;20346;-72
2023/09/04 04:39:22;;;;;;;;;;;15.90;95.80;;;;;;5007485;28;20410;-72
2023/09/04 04:41:48;;;;;;;;;;;15.90;95.70;;;;;;5006905;28;20003;-72
2023/09/04 04:44:14;;;;;;;;;;;15.80;95.70;;;;;;5007853;28;20239;-72
2023/09/04 04:46:40;;;;;;;;;;;15.80;95.70;;;;;;5008141;28;19913;-72
2023/09/04 04:49:06;;;;;;;;;;;15.80;95.80;;;;;;4999899;28;19917;-72
2023/09/04 04:51:32;;;;;;;;;;;15.80;95.80;;;;;;5007832;28;20274;-72
2023/09/04 04:53:57;;;;;;;;;;;15.80;95.80;;;;;;5007488;28;19917;-72
2023/09/04 04:56:23;;;;;;;;;;;15.80;95.80;;;;;;5008072;28;19921;-72
2023/09/04 04:58:48;;;;;;;;;;;15.80;95.80;;;;;;5007612;28;19914;-72
2023/09/04 05:01:14;;;;;;;;;;;15.80;95.80;;;;;;5007601;28;19925;-72
2023/09/04 05:03:39;;;;;;;;;;;15.80;95.80;;;;;;5007997;28;19988;-72
2023/09/04 05:06:08;;;;;;;;;;;15.80;95.80;;;;;;5005689;28;19917;-72
2023/09/04 05:08:34;;;;;;;;;;;15.80;95.80;;;;;;5007719;28;20739;-72
2023/09/04 05:11:02;;;;;;;;;;;15.70;95.70;;;;;;5007219;28;20052;-72
2023/09/04 05:13:28;;;;;;;;;;;15.70;95.80;;;;;;5007803;28;19913;-72
2023/09/04 05:15:53;;;;;;;;;;;15.70;95.80;;;;;;5006270;28;19917;-72
2023/09/04 05:18:19;;;;;;;;;;;15.70;95.80;;;;;;5007589;28;19921;-72
2023/09/04 05:20:44;;;;;;;;;;;15.70;95.80;;;;;;5007379;28;19914;-72
2023/09/04 05:23:10;;;;;;;;;;;15.70;95.80;;;;;;5007733;28;20278;-72
2023/09/04 05:25:35;;;;;;;;;;;15.70;95.80;;;;;;5007920;28;19996;-72
2023/09/04 05:28:01;;;;;;;;;;;15.70;95.80;;;;;;5007229;28;19917;-72
2023/09/04 05:30:26;;;;;;;;;;;15.70;95.80;;;;;;5007530;28;19913;-72
2023/09/04 05:32:52;;;;;;;;;;;15.70;95.80;;;;;;5007168;28;19920;-72
2023/09/04 05:35:18;;;;;;;;;;;15.60;95.70;;;;;;5007629;28;19914;-72
2023/09/04 05:37:44;;;;;;;;;;;15.60;95.80;;;;;;5005741;28;20345;-72
2023/09/04 05:40:10;;;;;;;;;;;15.60;95.80;;;;;;5005833;28;19918;-72
2023/09/04 05:42:35;;;;;;;;;;;15.60;95.80;;;;;;5007135;28;19964;-72
2023/09/04 05:45:01;;;;;;;;;;;15.60;95.80;;;;;;5007086;28;19928;-72
2023/09/04 05:47:26;;;;;;;;;;;15.60;95.80;;;;;;5007516;28;19913;-72
2023/09/04 05:49:52;;;;;;;;;;;15.60;95.80;;;;;;5006947;28;20020;-72
2023/09/04 05:52:17;;;;;;;;;;;15.60;95.80;;;;;;5007949;28;19913;-72
2023/09/04 05:54:43;;;;;;;;;;;15.60;95.80;;;;;;5010703;28;19921;-72
2023/09/04 05:57:08;;;;;;;;;;;15.60;95.80;;;;;;5011224;28;19913;-72
2023/09/04 05:59:34;;;;;;;;;;;15.60;95.80;;;;;;5009256;28;19913;-72
2023/09/04 06:02:00;;;;;;;;;;;15.60;95.80;;;;;;5025349;28;20000;-72
2023/09/04 06:04:25;;;;;;;;;;;15.60;95.70;;;;;;5011106;28;19948;-72
2023/09/04 06:06:51;;;;;;;;;;;15.60;95.80;;;;;;5009636;28;19917;-72
2023/09/04 06:09:17;;;;;;;;;;;15.60;95.80;;;;;;5010674;28;19948;-72
2023/09/04 06:11:43;;;;;;;;;;;15.60;95.80;;;;;;5009891;28;19924;-72
2023/09/04 06:14:08;;;;;;;;;;;15.60;95.80;;;;;;5005917;28;20027;-72
2023/09/04 06:16:34;;;;;;;;;;;15.60;95.80;;;;;;5010743;28;19917;-72
2023/09/04 06:19:00;;;;;;;;;;;15.60;95.80;;;;;;5010218;28;19913;-72
2023/09/04 06:21:25;;;;;;;;;;;15.60;95.80;;;;;;5010353;28;20420;-72
2023/09/04 06:23:51;;;;;;;;;;;15.60;95.80;;;;;;5010464;28;19924;-72
2023/09/04 06:26:17;;;;;;;;;;;15.60;95.80;;;;;;5010247;28;19931;-72
2023/09/04 06:28:42;;;;;;;;;;;15.70;95.70;;;;;;5010195;28;20024;-72
2023/09/04 06:31:08;;;;;;;;;;;15.70;95.80;;;;;;5010319;28;20290;-72
2023/09/04 06:33:36;;;;;;;;;;;15.70;95.70;;;;;;5010033;28;19917;-72
2023/09/04 06:36:03;;;;;;;;;;;15.70;95.70;;;;;;5010337;28;20405;-72
2023/09/04 06:38:29;;;;;;;;;;;15.70;95.70;;;;;;5010146;28;20029;-72
2023/09/04 06:40:57;;;;;;;;;;;15.70;95.70;;;;;;5008494;28;20402;-72
2023/09/04 06:43:23;;;;;;;;;;;15.70;95.70;;;;;;5010192;28;19920;-72
2023/09/04 06:45:49;;;;;;;;;;;15.70;95.70;;;;;;5009597;28;19921;-72
2023/09/04 06:48:14;;;;;;;;;;;15.70;95.70;;;;;;5010109;28;19932;-72
2023/09/04 06:50:40;;;;;;;;;;;15.70;95.70;;;;;;5008934;28;19959;-72
2023/09/04 06:53:05;;;;;;;;;;;15.80;95.70;;;;;;5009052;28;19917;-72
2023/09/04 06:55:31;;;;;;;;;;;15.80;95.70;;;;;;5010106;28;19917;-72
2023/09/04 06:57:56;;;;;;;;;;;15.80;95.70;;;;;;5009298;28;19957;-72
2023/09/04 07:00:22;;;;;;;;;;;15.80;95.70;;;;;;5009687;28;20498;-72
2023/09/04 07:02:47;;;;;;;;;;;15.80;95.70;;;;;;5009494;28;20354;-72
2023/09/04 07:05:13;;;;;;;;;;;15.80;95.70;;;;;;5007438;28;19944;-72
2023/09/04 07:07:38;;;;;;;;;;;15.80;95.70;;;;;;5008065;28;19920;-72
2023/09/04 07:10:05;;;;;;;;;;;15.80;95.70;;;;;;5009095;28;19909;-72
2023/09/04 07:12:31;;;;;;;;;;;15.80;95.70;;;;;;5009118;28;19996;-72
2023/09/04 07:14:57;;;;;;;;;;;15.80;95.70;;;;;;5007493;28;20408;-72
2023/09/04 07:17:23;;;;;;;;;;;15.80;95.70;;;;;;5009493;28;19918;-72
2023/09/04 07:19:48;;;;;;;;;;;15.80;95.70;;;;;;5007580;28;19914;-72
2023/09/04 07:22:14;;;;;;;;;;;15.90;95.80;;;;;;5008899;28;19909;-72
2023/09/04 07:24:39;;;;;;;;;;;15.90;95.70;;;;;;5009217;28;19918;-72
2023/09/04 07:27:05;;;;;;;;;;;15.90;95.70;;;;;;5008751;28;19914;-72
2023/09/04 07:29:30;;;;;;;;;;;15.90;95.70;;;;;;5008906;28;19914;-72
2023/09/04 07:31:56;;;;;;;;;;;15.90;95.60;;;;;;5008020;28;19917;-72
2023/09/04 07:34:22;;;;;;;;;;;15.90;95.60;;;;;;5007531;28;19928;-72
2023/09/04 07:36:47;;;;;;;;;;;16.00;95.60;;;;;;5008512;28;19913;-72
2023/09/04 07:39:13;;;;;;;;;;;16.10;95.60;;;;;;5008734;28;19914;-72
2023/09/04 07:41:38;;;;;;;;;;;16.00;95.60;;;;;;5008249;28;19988;-72
2023/09/04 07:44:04;;;;;;;;;;;16.10;95.60;;;;;;5007775;28;20603;-72
2023/09/04 07:46:30;;;;;;;;;;;16.10;95.50;;;;;;5008435;28;19917;-72
2023/09/04 07:48:55;;;;;;;;;;;16.10;95.40;;;;;;5008135;28;19983;-72
2023/09/04 07:51:21;;;;;;;;;;;16.20;95.50;;;;;;5007700;28;20359;-72
2023/09/04 07:53:46;;;;;;;;;;;16.20;95.40;;;;;;5007867;28;20012;-72
2023/09/04 07:56:12;;;;;;;;;;;16.20;95.40;;;;;;5008790;28;20424;-72
2023/09/04 07:58:39;;;;;;;;;;;16.20;95.30;;;;;;5008376;28;19963;-72
2023/09/04 08:01:05;;;;;;;;;;;16.30;95.30;;;;;;5005885;28;19913;-72
2023/09/04 08:03:31;;;;;;;;;;;16.30;95.30;;;;;;5008899;28;20406;-72
2023/09/04 08:05:56;;;;;;;;;;;16.40;95.20;;;;;;5003065;28;19928;-72
2023/09/04 08:08:21;;;;;;;;;;;16.40;95.20;;;;;;5008366;28;20425;-72
2023/09/04 08:10:50;;;;;;;;;;;16.40;95.20;;;;;;5006768;28;19913;-72
2023/09/04 08:13:17;;;;;;;;;;;16.50;95.10;;;;;;5008538;28;19992;-72
2023/09/04 08:15:43;;;;;;;;;;;16.50;95.10;;;;;;5008983;28;19975;-72
2023/09/04 08:18:09;;;;;;;;;;;16.50;95.00;;;;;;5007078;28;20425;-72
2023/09/04 08:20:35;;;;;;;;;;;16.60;95.00;;;;;;5006794;28;19921;-72
2023/09/04 08:23:01;;;;;;;;;;;16.60;95.00;;;;;;5007819;28;19920;-72
2023/09/04 08:25:27;;;;;;;;;;;16.60;94.90;;;;;;5007040;28;19921;-72
2023/09/04 08:27:52;;;;;;;;;;;16.70;94.90;;;;;;5008109;28;19967;-72
2023/09/04 08:30:18;;;;;;;;;;;16.70;94.90;;;;;;5008395;28;19921;-72
2023/09/04 08:32:44;;;;;;;;;;;16.70;95.00;;;;;;5008438;28;20310;-72
2023/09/04 08:35:10;;;;;;;;;;;16.80;94.90;;;;;;5008331;28;20389;-72
2023/09/04 08:37:36;;;;;;;;;;;16.80;94.90;;;;;;5007880;28;19914;-72
2023/09/04 08:40:02;;;;;;;;;;;16.90;94.90;;;;;;5007950;28;20414;-72
2023/09/04 08:42:28;;;;;;;;;;;16.90;94.90;;;;;;5007869;28;19913;-72
2023/09/04 08:44:55;;;;;;;;;;;16.90;94.60;;;;;;5007864;28;19924;-72
2023/09/04 08:47:21;;;;;;;;;;;17.00;94.80;;;;;;5008346;28;19909;-72
2023/09/04 08:49:47;;;;;;;;;;;17.00;94.50;;;;;;5007851;28;19917;-72
2023/09/04 08:52:12;;;;;;;;;;;17.10;94.60;;;;;;5008129;28;20047;-72
2023/09/04 08:54:38;;;;;;;;;;;17.10;94.50;;;;;;5007990;28;19914;-72
2023/09/04 08:57:04;;;;;;;;;;;17.20;94.50;;;;;;5007656;28;19909;-72
2023/09/04 08:59:29;;;;;;;;;;;17.20;94.30;;;;;;5006714;28;20763;-72
2023/09/04 09:01:56;;;;;;;;;;;17.30;94.40;;;;;;5006056;28;20414;-72
2023/09/04 09:04:22;;;;;;;;;;;17.30;94.20;;;;;;5006973;28;20462;-72
2023/09/04 09:06:48;;;;;;;;;;;17.40;94.30;;;;;;5005632;28;19959;-71
2023/09/04 09:09:18;;;;;;;;;;;17.40;94.20;;;;;;5007956;28;19914;-71
2023/09/04 09:11:44;;;;;;;;;;;17.40;94.30;;;;;;5007686;28;20485;-71
2023/09/04 09:14:12;;;;;;;;;;;17.40;94.20;;;;;;5007595;28;19996;-71
2023/09/04 09:16:37;;;;;;;;;;;17.50;94.20;;;;;;5007740;28;19913;-71
2023/09/04 09:19:03;;;;;;;;;;;17.50;94.10;;;;;;5006399;28;19924;-72
2023/09/04 09:21:29;;;;;;;;;;;17.60;94.10;;;;;;5007403;28;19917;-71
2023/09/04 09:24:15;;;;;;;;;;;17.60;94.10;;;;;;5007495;28;19920;-71
2023/09/04 09:26:42;;;;;;;;;;;17.60;94.00;;;;;;5007694;28;19924;-71
2023/09/04 09:29:08;;;;;;;;;;;17.70;93.90;;;;;;5011168;28;20263;-71
2023/09/04 09:31:38;;;;;;;;;;;17.70;93.90;;;;;;5010323;28;19975;-71
2023/09/04 09:34:03;;;;;;;;;;;17.70;93.80;;;;;;5011300;28;19918;-71
2023/09/04 09:36:29;;;;;;;;;;;17.80;93.80;;;;;;5009994;28;19913;-71
2023/09/04 09:38:54;;;;;;;;;;;17.80;93.80;;;;;;5011363;28;19963;-71
2023/09/04 09:41:20;;;;;;;;;;;17.80;93.80;;;;;;5011532;28;20297;-71
2023/09/04 09:43:45;;;;;;;;;;;17.80;93.70;;;;;;5011283;28;19920;-71
2023/09/04 09:46:16;;;;;;;;;;;17.90;93.80;;;;;;5010305;28;19921;-72
2023/09/04 09:48:42;;;;;;;;;;;17.90;93.70;;;;;;5011452;28;20028;-72
2023/09/04 09:51:09;;;;;;;;;;;17.90;93.70;;;;;;5010983;28;19914;-71
2023/09/04 09:53:51;;;;;;;;;;;18.00;93.70;;;;;;5009692;28;20637;-71
2023/09/04 09:56:18;;;;;;;;;;;18.00;93.70;;;;;;5009386;28;19977;-71
2023/09/04 09:58:47;;;;;;;;;;;18.00;93.60;;;;;;5006854;28;19913;-71
2023/09/04 10:01:13;;;;;;;;;;;18.10;93.60;;;;;;5011299;28;19913;-71
2023/09/04 10:03:39;;;;;;;;;;;18.10;93.60;;;;;;5009680;28;20362;-71
2023/09/04 10:06:06;;;;;;;;;;;18.20;93.50;;;;;;5004664;28;19918;-72
2023/09/04 10:08:34;;;;;;;;;;;18.20;93.60;;;;;;5011202;28;19913;-72
2023/09/04 10:11:02;;;;;;;;;;;18.20;93.50;;;;;;5010499;28;20012;-71
2023/09/04 10:13:29;;;;;;;;;;;18.30;93.50;;;;;;5010470;28;20008;-71
2023/09/04 10:15:57;;;;;;;;;;;18.30;93.40;;;;;;5010769;28;19913;-71
2023/09/04 10:18:22;;;;;;;;;;;18.40;93.40;;;;;;5011097;28;19917;-71
2023/09/04 10:20:48;;;;;;;;;;;18.40;93.40;;;;;;5010320;28;19914;-71
2023/09/04 10:23:14;;;;;;;;;;;18.50;93.50;;;;;;5010691;28;19914;-71
2023/09/04 10:25:46;;;;;;;;;;;18.50;93.50;;;;;;5010747;28;19917;-71
2023/09/04 10:28:21;;;;;;;;;;;18.60;93.40;;;;;;5002768;28;19917;-71
2023/09/04 10:30:49;;;;;;;;;;;18.60;93.40;;;;;;5010733;28;19914;-71
2023/09/04 10:33:15;;;;;;;;;;;18.70;93.30;;;;;;5010764;28;19914;-71
2023/09/04 10:35:41;;;;;;;;;;;18.80;93.60;;;;;;5010858;28;19920;-71
2023/09/04 10:38:07;;;;;;;;;;;18.80;93.70;;;;;;5008790;28;19963;-71
2023/09/04 10:40:33;;;;;;;;;;;18.90;93.60;;;;;;5009323;28;19917;-71
2023/09/04 10:43:03;;;;;;;;;;;19.00;93.60;;;;;;5009917;28;19979;-71
2023/09/04 10:45:29;;;;;;;;;;;19.00;93.70;;;;;;5010391;28;19918;-71
2023/09/04 10:47:54;;;;;;;;;;;19.10;93.60;;;;;;5009964;28;19917;-71
2023/09/04 10:50:27;;;;;;;;;;;19.20;93.70;;;;;;5009959;28;20389;-71
2023/09/04 10:52:52;;;;;;;;;;;19.30;93.70;;;;;;5008141;28;19936;-71
2023/09/04 10:55:18;;;;;;;;;;;19.40;93.70;;;;;;5009948;28;19914;-71
2023/09/04 10:58:03;;;;;;;;;;;19.50;93.70;;;;;;5009109;28;19910;-71
2023/09/04 11:00:29;;;;;;;;;;;19.60;93.70;;;;;;5003719;28;19919;-71
2023/09/04 11:02:55;;;;;;;;;;;19.70;93.70;;;;;;5007496;28;19964;-72
2023/09/04 11:05:20;;;;;;;;;;;19.80;93.70;;;;;;5009181;28;19917;-71
2023/09/04 11:07:46;;;;;;;;;;;19.90;93.80;;;;;;5008623;28;19917;-71
2023/09/04 11:10:14;;;;;;;;;;;20.00;93.80;;;;;;5008624;28;19953;-71
2023/09/04 11:12:42;;;;;;;;;;;20.20;93.90;;;;;;5008033;28;19956;-71
2023/09/04 11:15:11;;;;;;;;;;;20.30;93.80;;;;;;5009800;28;19975;-71
2023/09/04 11:17:38;;;;;;;;;;;20.30;94.00;;;;;;5008510;28;20404;-71
2023/09/04 11:20:04;;;;;;;;;;;20.50;94.00;;;;;;5009560;28;19913;-71
2023/09/04 11:22:32;;;;;;;;;;;20.60;94.00;;;;;;5009428;28;19920;-71
2023/09/04 11:24:57;;;;;;;;;;;20.70;94.10;;;;;;5009242;28;20386;-71
2023/09/04 11:27:24;;;;;;;;;;;20.80;94.00;;;;;;5009698;28;19921;-71
2023/09/04 11:29:50;;;;;;;;;;;20.90;94.20;;;;;;5009449;28;19952;-71
2023/09/04 11:32:16;;;;;;;;;;;21.00;94.20;;;;;;5009302;28;20566;-71
2023/09/04 11:34:43;;;;;;;;;;;21.10;94.20;;;;;;5009524;28;19917;-71
2023/09/04 11:37:09;;;;;;;;;;;21.20;94.30;;;;;;5009370;28;20355;-71
2023/09/04 11:39:35;;;;;;;;;;;21.30;94.30;;;;;;5009559;28;19914;-71
2023/09/04 11:42:01;;;;;;;;;;;21.40;94.30;;;;;;5008924;28;19909;-71
2023/09/04 11:44:26;;;;;;;;;;;21.50;94.20;;;;;;5009403;28;19953;-71
2023/09/04 11:46:52;;;;;;;;;;;21.60;94.30;;;;;;5007558;28;19917;-71
2023/09/04 11:49:18;;;;;;;;;;;21.70;94.10;;;;;;5007466;28;19968;-71
2023/09/04 11:51:44;;;;;;;;;;;21.80;94.10;;;;;;5008617;28;19913;-71
2023/09/04 11:54:10;;;;;;;;;;;21.90;94.20;;;;;;5008339;28;19944;-71
2023/09/04 11:56:36;;;;;;;;;;;21.90;94.20;;;;;;5009319;28;20642;-71
2023/09/04 11:59:04;;;;;;;;;;;22.00;94.30;;;;;;5006749;28;19913;-71
2023/09/04 12:01:30;;;;;;;;;;;22.10;94.10;;;;;;5005738;28;19914;-71
2023/09/04 12:03:55;;;;;;;;;;;22.20;94.10;;;;;;5008646;28;19920;-72
2023/09/04 12:06:24;;;;;;;;;;;22.30;94.10;;;;;;5008839;28;19922;-71
2023/09/04 12:08:50;;;;;;;;;;;22.40;94.10;;;;;;5008519;28;19921;-71
2023/09/04 12:11:16;;;;;;;;;;;22.40;94.00;;;;;;5008329;28;19917;-71
2023/09/04 12:13:42;;;;;;;;;;;22.50;94.10;;;;;;5008723;28;19917;-71
2023/09/04 12:16:07;;;;;;;;;;;22.50;94.00;;;;;;5008530;28;19909;-71
2023/09/04 12:18:34;;;;;;;;;;;22.70;94.00;;;;;;5008907;28;20004;-71
2023/09/04 12:21:00;;;;;;;;;;;22.70;94.00;;;;;;5007914;28;20388;-71
2023/09/04 12:23:39;;;;;;;;;;;22.80;94.10;;;;;;5008497;28;20000;-71
2023/09/04 12:26:05;;;;;;;;;;;22.80;94.40;;;;;;5008235;28;19917;-71
2023/09/04 12:28:31;;;;;;;;;;;22.90;94.10;;;;;;5008403;28;19990;-71
2023/09/04 12:30:56;;;;;;;;;;;23.00;94.20;;;;;;5008016;28;20611;-71
2023/09/04 12:33:28;;;;;;;;;;;23.10;94.10;;;;;;5008191;28;19951;-71
2023/09/04 12:35:59;;;;;;;;;;;23.10;94.10;;;;;;5000073;28;19937;-71
2023/09/04 12:38:25;;;;;;;;;;;23.20;94.20;;;;;;5007074;28;20337;-71
2023/09/04 12:40:50;;;;;;;;;;;23.20;94.20;;;;;;5005882;28;20012;-71
2023/09/04 12:43:15;;;;;;;;;;;23.30;94.30;;;;;;5007204;28;19921;-71
2023/09/04 12:45:42;;;;;;;;;;;23.40;94.30;;;;;;5008100;28;19921;-71
2023/09/04 12:48:14;;;;;;;;;;;23.40;94.30;;;;;;5007344;28;19918;-71
2023/09/04 12:50:39;;;;;;;;;;;23.40;94.30;;;;;;5007354;28;20698;-71
2023/09/04 12:53:05;;;;;;;;;;;23.50;94.30;;;;;;5006850;28;19945;-71
2023/09/04 12:55:31;;;;;;;;;;;23.50;94.30;;;;;;5008236;28;19965;-71
2023/09/04 12:58:05;;;;;;;;;;;23.60;94.40;;;;;;4999158;28;19918;-71
2023/09/04 13:00:31;;;;;;;;;;;23.70;94.40;;;;;;5001793;28;19910;-71
2023/09/04 13:02:57;;;;;;;;;;;23.80;94.20;;;;;;5003292;28;19920;-71
2023/09/04 13:05:23;;;;;;;;;;;23.80;94.50;;;;;;5006342;28;19923;-71
2023/09/04 13:07:48;;;;;;;;;;;23.90;94.50;;;;;;5007009;28;20557;-71
2023/09/04 13:10:14;;;;;;;;;;;23.90;94.50;;;;;;5007875;28;19940;-71
2023/09/04 13:12:40;;;;;;;;;;;23.90;94.50;;;;;;5004132;28;19917;-71
2023/09/04 13:15:05;;;;;;;;;;;24.00;94.50;;;;;;5007266;28;19921;-71
2023/09/04 13:17:31;;;;;;;;;;;24.00;94.50;;;;;;5007787;28;19922;-71
2023/09/04 13:19:56;;;;;;;;;;;24.10;94.50;;;;;;5007415;28;19917;-71
2023/09/04 13:22:23;;;;;;;;;;;24.20;94.50;;;;;;5007737;28;19964;-71
2023/09/04 13:24:49;;;;;;;;;;;24.20;94.50;;;;;;5001515;28;19917;-71
2023/09/04 13:27:14;;;;;;;;;;;24.30;94.40;;;;;;5006408;28;20373;-71
2023/09/04 13:29:40;;;;;;;;;;;24.30;94.50;;;;;;5006718;28;19914;-71
2023/09/04 13:32:06;;;;;;;;;;;24.40;94.50;;;;;;5007438;28;19913;-71
2023/09/04 13:34:31;;;;;;;;;;;24.40;94.40;;;;;;5002153;28;19933;-71
2023/09/04 13:36:57;;;;;;;;;;;24.50;94.40;;;;;;5005866;28;20438;-71
2023/09/04 13:39:22;;;;;;;;;;;24.50;94.40;;;;;;5003999;28;19916;-71
2023/09/04 13:41:48;;;;;;;;;;;24.50;94.70;;;;;;5005984;28;19976;-71
2023/09/04 13:44:13;;;;;;;;;;;24.60;94.30;;;;;;4997803;28;19913;-71
2023/09/04 13:46:39;;;;;;;;;;;24.60;94.30;;;;;;4998920;28;19968;-71
2023/09/04 13:49:05;;;;;;;;;;;24.70;94.30;;;;;;4999757;28;19918;-71
2023/09/04 13:51:31;;;;;;;;;;;24.70;94.20;;;;;;5001982;28;20217;-72
2023/09/04 13:53:56;;;;;;;;;;;24.80;94.20;;;;;;5001134;28;19924;-71
2023/09/04 13:56:22;;;;;;;;;;;24.80;94.10;;;;;;5004876;28;20027;-71
2023/09/04 13:58:47;;;;;;;;;;;24.80;94.20;;;;;;5000956;28;21118;-71
2023/09/04 14:01:14;;;;;;;;;;;24.90;94.10;;;;;;5003097;28;20656;-71
2023/09/04 14:03:39;;;;;;;;;;;24.90;94.00;;;;;;5002032;28;19921;-71
2023/09/04 14:06:05;;;;;;;;;;;25.00;94.00;;;;;;4999099;28;19927;-72
2023/09/04 14:08:30;;;;;;;;;;;25.00;93.30;;;;;;5003310;28;20294;-70
2023/09/04 14:10:56;;;;;;;;;;;25.10;93.90;;;;;;5006055;28;20429;-71